Smith Center, Kansas
Current Conditions -  °F | °C
As of 10:15 AM on Wednesday 22 Oct 2014 (Local Time) from KHDE Reporting Station
Clear Clear  
Wind Chill: 62°   Ceiling: Unl
Heat Index: 62°   Visibility: 10mi
Dew Point: 53°   Wind: 14mph
Humidity: 73%   Direction: 190°S
Pressure: 30.01"   Gusts: 20mph
Location:  39.78°N, 98.79°W
Report Text: KHDE 221515Z AUTO 19012G17KT 10SM CLR 17/12 A3001 RMK AO2 T01650117
Loading
Personal Weather Stations






























Interactive Weather Map
Tropical Storm Tracking
New forecast layout! Learn more

10-Day Weather Forecast

Advertisements
Track Severe Weather on mobile